Time;durP1;ratioP1;P1;durP2;ratioP2;P2;SDS_P1;SDS_P2;PMS_P1;PMS_P2;Temp;Humidity;BMP_temperature;BMP_pressure;BME280_temperature;BME280_humidity;BME280_pressure;Samples;Min_cycle;Max_cycle;Signal;HPM_P1;HPM_P2
2023/07/25 00:01:19;;;;;;;5.27;2.87;;;17.90;99.90;;;;;;5029189;28;20655;-25
2023/07/25 00:03:49;;;;;;;4.45;2.30;;;17.90;99.90;;;;;;5035707;28;20239;-26
2023/07/25 00:06:17;;;;;;;5.40;2.70;;;17.90;99.90;;;;;;5046859;28;20605;-26
2023/07/25 00:08:45;;;;;;;5.97;2.80;;;17.90;99.90;;;;;;5049275;28;20192;-26
2023/07/25 00:11:13;;;;;;;5.40;2.80;;;17.90;99.90;;;;;;5048682;28;20227;-26
2023/07/25 00:13:41;;;;;;;5.80;2.63;;;17.90;99.90;;;;;;5047747;28;20303;-26
2023/07/25 00:16:08;;;;;;;4.77;2.90;;;17.90;99.90;;;;;;5048695;28;20223;-27
2023/07/25 00:18:35;;;;;;;7.03;2.83;;;17.90;99.90;;;;;;5047086;28;20317;-27
2023/07/25 00:21:02;;;;;;;8.03;3.10;;;17.90;99.90;;;;;;5047598;28;20682;-24
2023/07/25 00:23:30;;;;;;;6.77;2.77;;;17.90;99.90;;;;;;5047325;28;20204;-26
2023/07/25 00:25:57;;;;;;;4.13;2.33;;;17.90;99.90;;;;;;5046875;28;20215;-26
2023/07/25 00:28:27;;;;;;;3.43;2.20;;;17.90;99.90;;;;;;5047312;28;20684;-26
2023/07/25 00:30:56;;;;;;;5.70;2.83;;;18.00;99.90;;;;;;5047234;28;20201;-26
2023/07/25 00:33:23;;;;;;;4.70;2.70;;;18.00;99.90;;;;;;5047350;28;20484;-27
2023/07/25 00:35:53;;;;;;;5.28;2.38;;;18.00;99.90;;;;;;5046248;28;20589;-27
2023/07/25 00:38:23;;;;;;;4.55;2.60;;;18.00;99.90;;;;;;5030153;28;20232;-34
2023/07/25 00:40:50;;;;;;;4.67;2.23;;;18.00;99.90;;;;;;5048419;28;20208;-33
2023/07/25 00:43:18;;;;;;;6.80;2.87;;;18.00;99.90;;;;;;5046920;28;20196;-32
2023/07/25 00:45:45;;;;;;;5.33;2.40;;;18.00;99.90;;;;;;5046285;28;20220;-32
2023/07/25 00:48:13;;;;;;;5.77;2.30;;;18.00;99.90;;;;;;5046843;28;20200;-33
2023/07/25 00:50:45;;;;;;;4.72;2.20;;;18.00;99.90;;;;;;5048002;28;20208;-33
2023/07/25 00:53:14;;;;;;;5.10;2.60;;;18.00;99.90;;;;;;5030291;28;20211;-32
2023/07/25 00:55:42;;;;;;;3.73;2.27;;;18.00;99.90;;;;;;5046461;28;20224;-32
2023/07/25 00:58:09;;;;;;;6.17;2.57;;;18.00;99.90;;;;;;5043951;28;20245;-32
2023/07/25 01:00:38;;;;;;;5.27;2.80;;;18.00;99.90;;;;;;5026071;28;20594;-26
2023/07/25 01:03:06;;;;;;;5.50;2.60;;;18.00;99.90;;;;;;5041343;28;20219;-27
2023/07/25 01:05:42;;;;;;;5.03;2.57;;;18.00;99.90;;;;;;5032273;28;20209;-27
2023/07/25 01:08:12;;;;;;;5.18;2.70;;;18.00;99.90;;;;;;5032095;28;20253;-27
2023/07/25 01:10:39;;;;;;;5.22;2.78;;;17.90;99.90;;;;;;5046455;28;20216;-26
2023/07/25 01:13:06;;;;;;;6.10;2.60;;;17.90;99.90;;;;;;5046162;28;20208;-26
2023/07/25 01:15:36;;;;;;;6.10;2.80;;;17.90;99.90;;;;;;5038897;28;20224;-27
2023/07/25 01:18:09;;;;;;;4.90;2.70;;;17.90;99.90;;;;;;5040216;28;20292;-27
2023/07/25 01:20:37;;;;;;;6.60;2.85;;;17.90;99.90;;;;;;5046048;28;20208;-27
2023/07/25 01:23:06;;;;;;;6.50;3.13;;;17.90;99.90;;;;;;5046297;28;20200;-26
2023/07/25 01:25:33;;;;;;;6.43;3.10;;;17.90;99.90;;;;;;5045655;28;20250;-27
2023/07/25 01:28:08;;;;;;;6.00;3.10;;;17.90;99.90;;;;;;5028973;28;20278;-26
2023/07/25 01:30:39;;;;;;;8.93;2.90;;;17.90;99.90;;;;;;5046034;28;20204;-26
2023/07/25 01:33:06;;;;;;;6.20;3.20;;;17.90;99.90;;;;;;5043727;28;20257;-26
2023/07/25 01:35:38;;;;;;;7.97;3.03;;;17.90;99.90;;;;;;5046109;28;20239;-27
2023/07/25 01:38:10;;;;;;;7.17;2.93;;;17.80;99.90;;;;;;5046153;28;20630;-27
2023/07/25 01:40:39;;;;;;;8.27;2.80;;;17.80;99.90;;;;;;5045767;28;20277;-27
2023/07/25 01:43:09;;;;;;;5.30;3.03;;;17.80;99.90;;;;;;5048116;28;20231;-26
2023/07/25 01:45:39;;;;;;;5.67;2.90;;;17.80;99.90;;;;;;5029426;28;20216;-27
2023/07/25 01:48:08;;;;;;;7.47;3.00;;;17.80;99.90;;;;;;5047390;28;20198;-24
2023/07/25 01:50:37;;;;;;;7.50;3.10;;;17.80;99.90;;;;;;5025344;28;20205;-32
2023/07/25 01:53:05;;;;;;;5.05;3.03;;;17.80;99.90;;;;;;5024715;28;20216;-33
2023/07/25 01:55:32;;;;;;;9.43;2.97;;;17.80;99.90;;;;;;5025337;28;20249;-32
2023/07/25 01:58:01;;;;;;;6.87;3.50;;;17.70;99.90;;;;;;5026709;28;20240;-32
2023/07/25 02:00:30;;;;;;;7.20;3.30;;;17.70;99.90;;;;;;5027557;28;20224;-33
2023/07/25 02:02:58;;;;;;;5.63;3.20;;;17.70;99.90;;;;;;5025203;28;20329;-32
2023/07/25 02:05:25;;;;;;;8.27;2.90;;;17.80;99.90;;;;;;5009381;28;20204;-33
2023/07/25 02:07:52;;;;;;;4.63;3.13;;;17.80;99.90;;;;;;5024615;28;20212;-32
2023/07/25 02:10:19;;;;;;;6.03;3.10;;;17.80;99.90;;;;;;5026643;28;20843;-33
2023/07/25 02:12:51;;;;;;;9.17;3.57;;;17.80;99.90;;;;;;5025185;28;20212;-32
2023/07/25 02:15:24;;;;;;;7.10;3.23;;;17.80;99.90;;;;;;5026393;28;20197;-32
2023/07/25 02:17:55;;;;;;;5.43;3.03;;;17.80;99.90;;;;;;5025308;28;20212;-32
2023/07/25 02:20:25;;;;;;;5.70;2.90;;;17.80;99.90;;;;;;5025407;28;20857;-33
2023/07/25 02:22:53;;;;;;;4.40;3.00;;;17.70;99.90;;;;;;5024220;28;20211;-32
2023/07/25 02:25:20;;;;;;;6.13;2.90;;;17.70;99.90;;;;;;5025022;28;20201;-32
2023/07/25 02:27:49;;;;;;;8.83;3.30;;;17.70;99.90;;;;;;5025671;28;20753;-33
2023/07/25 02:30:21;;;;;;;8.10;3.47;;;17.70;99.90;;;;;;5026594;28;20663;-32
2023/07/25 02:32:50;;;;;;;3.97;3.27;;;17.70;99.90;;;;;;5024646;28;20197;-32
2023/07/25 02:35:20;;;;;;;4.93;3.07;;;17.70;99.90;;;;;;5024735;28;20208;-33
2023/07/25 02:37:47;;;;;;;6.57;3.53;;;17.70;99.90;;;;;;5025181;28;20236;-32
2023/07/25 02:40:15;;;;;;;6.45;3.50;;;17.70;99.90;;;;;;5025967;28;20284;-33
2023/07/25 02:42:44;;;;;;;6.53;3.08;;;17.70;99.90;;;;;;5024669;28;20201;-32
2023/07/25 02:45:11;;;;;;;4.97;3.20;;;17.70;99.90;;;;;;5024622;28;20300;-33
2023/07/25 02:47:41;;;;;;;5.67;3.60;;;17.60;99.90;;;;;;5026145;28;20216;-33
2023/07/25 02:50:10;;;;;;;5.37;3.40;;;17.60;99.90;;;;;;5024487;28;20201;-33
2023/07/25 02:52:40;;;;;;;6.73;3.03;;;17.60;99.90;;;;;;5023688;28;20568;-32
2023/07/25 02:55:10;;;;;;;6.67;3.63;;;17.60;99.90;;;;;;5025178;28;20216;-32
2023/07/25 02:57:40;;;;;;;6.83;3.63;;;17.60;99.90;;;;;;5024578;28;20677;-32
2023/07/25 03:00:07;;;;;;;6.70;3.28;;;17.60;99.90;;;;;;5034926;28;20689;-33
2023/07/25 03:02:37;;;;;;;4.57;3.17;;;17.60;99.90;;;;;;5045610;28;20211;-33
2023/07/25 03:05:05;;;;;;;6.73;3.57;;;17.60;99.90;;;;;;5044207;28;20208;-33
2023/07/25 03:07:34;;;;;;;5.50;3.40;;;17.50;99.90;;;;;;5043205;28;20232;-33
2023/07/25 03:10:03;;;;;;;9.87;3.43;;;17.60;99.90;;;;;;5045683;28;20550;-28
2023/07/25 03:12:32;;;;;;;6.73;3.20;;;17.50;99.90;;;;;;5044005;28;20303;-27
2023/07/25 03:15:00;;;;;;;9.83;3.73;;;17.50;99.90;;;;;;5045791;28;20603;-26
2023/07/25 03:17:27;;;;;;;7.25;3.30;;;17.50;99.90;;;;;;5027503;28;20301;-27
2023/07/25 03:19:57;;;;;;;7.07;3.33;;;17.50;99.90;;;;;;5043587;28;20208;-27
2023/07/25 03:22:24;;;;;;;6.80;3.30;;;17.50;99.90;;;;;;5042996;28;20732;-27
2023/07/25 03:24:51;;;;;;;5.97;3.20;;;17.50;99.90;;;;;;5045751;28;20192;-27
2023/07/25 03:27:21;;;;;;;7.10;3.50;;;17.50;99.90;;;;;;5045397;28;20737;-27
2023/07/25 03:29:48;;;;;;;8.67;3.77;;;17.50;99.90;;;;;;5027413;28;20303;-27
2023/07/25 03:32:15;;;;;;;6.30;3.10;;;17.50;99.90;;;;;;5045481;28;20629;-26
2023/07/25 03:34:45;;;;;;;5.53;3.28;;;17.50;99.90;;;;;;5044093;28;20238;-27
2023/07/25 03:37:16;;;;;;;4.30;2.63;;;17.50;99.90;;;;;;5044236;28;20309;-27
2023/07/25 03:39:48;;;;;;;7.70;3.50;;;17.50;99.90;;;;;;5043862;28;20232;-27
2023/07/25 03:42:15;;;;;;;5.25;3.17;;;17.50;99.90;;;;;;5044949;28;20209;-27
2023/07/25 03:44:45;;;;;;;5.20;3.30;;;17.50;99.90;;;;;;5045101;28;20196;-26
2023/07/25 03:47:14;;;;;;;7.47;3.37;;;17.50;99.90;;;;;;5043729;28;20220;-26
2023/07/25 03:49:45;;;;;;;7.47;3.60;;;17.50;99.90;;;;;;5045569;28;20558;-26
2023/07/25 03:52:13;;;;;;;6.17;3.67;;;17.50;99.90;;;;;;5042878;28;20211;-26
2023/07/25 03:54:42;;;;;;;6.97;3.40;;;17.50;99.90;;;;;;5043867;28;20216;-26
2023/07/25 03:57:11;;;;;;;11.35;3.92;;;17.50;99.90;;;;;;5044925;28;20270;-26
2023/07/25 03:59:39;;;;;;;6.60;3.38;;;17.50;99.90;;;;;;5043552;28;20228;-27
2023/07/25 04:02:06;;;;;;;7.57;3.83;;;17.40;99.90;;;;;;5043619;28;20200;-27
2023/07/25 04:04:35;;;;;;;8.33;4.13;;;17.40;99.90;;;;;;5043842;28;20224;-26
2023/07/25 04:07:03;;;;;;;6.88;3.97;;;17.40;99.90;;;;;;5044369;28;20754;-26
2023/07/25 04:09:30;;;;;;;6.20;3.85;;;17.40;99.90;;;;;;5043789;28;20208;-26
2023/07/25 04:11:57;;;;;;;5.30;3.60;;;17.40;99.90;;;;;;5042911;28;20218;-26
2023/07/25 04:14:25;;;;;;;9.73;4.00;;;17.40;99.90;;;;;;5044901;28;20701;-26
2023/07/25 04:16:52;;;;;;;7.30;3.97;;;17.40;99.90;;;;;;5043282;28;20274;-26
2023/07/25 04:19:24;;;;;;;6.20;3.60;;;17.30;99.90;;;;;;5044787;28;20211;-26
2023/07/25 04:21:51;;;;;;;11.90;4.37;;;17.30;99.90;;;;;;5024672;28;20229;-26
2023/07/25 04:24:23;;;;;;;4.85;3.15;;;17.30;99.90;;;;;;5025538;28;20201;-26
2023/07/25 04:26:52;;;;;;;7.10;3.80;;;17.30;99.90;;;;;;5023313;28;20626;-26
2023/07/25 04:29:22;;;;;;;8.03;3.63;;;17.30;99.90;;;;;;5024830;28;20217;-26
2023/07/25 04:31:49;;;;;;;5.32;3.63;;;17.30;99.90;;;;;;4990697;28;20201;-26
2023/07/25 04:34:19;;;;;;;7.77;4.00;;;17.30;99.90;;;;;;5026389;28;20211;-26
2023/07/25 04:36:46;;;;;;;6.22;3.83;;;17.30;99.90;;;;;;5027732;28;20295;-26
2023/07/25 04:39:14;;;;;;;11.13;3.95;;;17.30;99.90;;;;;;5028131;28;20873;-26
2023/07/25 04:41:43;;;;;;;6.25;3.63;;;17.30;99.90;;;;;;5010718;28;20266;-26
2023/07/25 04:44:11;;;;;;;9.80;3.75;;;17.30;99.90;;;;;;5027690;28;20197;-26
2023/07/25 04:46:38;;;;;;;7.80;3.77;;;17.30;99.90;;;;;;5027005;28;20211;-26
2023/07/25 04:49:06;;;;;;;6.90;3.50;;;17.30;99.90;;;;;;5026787;28;20623;-26
2023/07/25 04:51:34;;;;;;;6.45;3.35;;;17.30;99.90;;;;;;5027105;28;20204;-26
2023/07/25 04:54:01;;;;;;;8.37;3.53;;;17.20;99.90;;;;;;5026671;28;20299;-26
2023/07/25 04:56:28;;;;;;;9.43;3.30;;;17.20;99.90;;;;;;5027015;28;20224;-26
2023/07/25 04:58:58;;;;;;;9.57;3.43;;;17.20;99.90;;;;;;5018009;28;20367;-26
2023/07/25 05:01:25;;;;;;;8.02;3.53;;;17.30;99.90;;;;;;5031201;28;20554;-26
2023/07/25 05:03:52;;;;;;;6.77;3.33;;;17.30;99.90;;;;;;5047684;28;20705;-26
2023/07/25 05:06:22;;;;;;;7.43;3.53;;;17.30;99.90;;;;;;5030778;28;20274;-26
2023/07/25 05:08:51;;;;;;;7.13;3.50;;;17.30;99.90;;;;;;5046147;28;20291;-26
2023/07/25 05:11:20;;;;;;;8.30;3.03;;;17.30;99.90;;;;;;5038727;28;20201;-26
2023/07/25 05:13:48;;;;;;;6.13;3.00;;;17.30;99.90;;;;;;5034633;28;20288;-26
2023/07/25 05:16:15;;;;;;;8.77;3.20;;;17.30;99.90;;;;;;5021631;28;20225;-26
2023/07/25 05:18:44;;;;;;;7.80;3.30;;;17.30;99.90;;;;;;5021053;28;20213;-26
2023/07/25 05:21:16;;;;;;;6.20;3.30;;;17.30;99.90;;;;;;5036196;28;20208;-26
2023/07/25 05:23:43;;;;;;;6.57;3.30;;;17.30;99.90;;;;;;5033034;28;20204;-26
2023/07/25 05:26:13;;;;;;;7.30;3.30;;;17.30;99.90;;;;;;5041491;28;20192;-26
2023/07/25 05:28:43;;;;;;;9.40;3.43;;;17.30;99.90;;;;;;5031562;28;20196;-26
2023/07/25 05:31:12;;;;;;;6.83;3.27;;;17.30;99.90;;;;;;5033015;28;20241;-26
2023/07/25 05:33:39;;;;;;;5.27;3.13;;;17.20;99.90;;;;;;5045261;28;20501;-26
2023/07/25 05:36:13;;;;;;;7.33;3.30;;;17.20;99.90;;;;;;5037516;28;20631;-26
2023/07/25 05:38:40;;;;;;;6.33;2.97;;;17.20;99.90;;;;;;5030883;28;20237;-27
2023/07/25 05:41:12;;;;;;;5.43;3.10;;;17.20;99.90;;;;;;5024675;28;20205;-26
2023/07/25 05:43:41;;;;;;;7.13;4.03;;;17.20;99.90;;;;;;5023570;28;20513;-27
2023/07/25 05:46:12;;;;;;;5.73;3.57;;;17.20;99.90;;;;;;5025387;28;20205;-26
2023/07/25 05:48:40;;;;;;;5.00;3.47;;;17.20;99.90;;;;;;5025104;28;20205;-26
2023/07/25 05:51:09;;;;;;;7.47;3.60;;;17.20;99.90;;;;;;5024421;28;20850;-26
2023/07/25 05:53:39;;;;;;;6.13;3.40;;;17.20;99.90;;;;;;5025329;28;20288;-26
2023/07/25 05:56:06;;;;;;;10.00;3.60;;;17.20;99.90;;;;;;5025106;28;20268;-26
2023/07/25 05:58:36;;;;;;;7.07;3.27;;;17.20;99.90;;;;;;5026708;28;20774;-32
2023/07/25 06:01:03;;;;;;;8.07;3.37;;;17.20;99.90;;;;;;5024834;28;20227;-32
2023/07/25 06:03:32;;;;;;;5.70;3.33;;;17.20;99.90;;;;;;5026764;28;20227;-31
2023/07/25 06:05:59;;;;;;;6.20;3.40;;;17.20;99.90;;;;;;5025988;28;20300;-32
2023/07/25 06:08:29;;;;;;;7.93;3.50;;;17.30;99.90;;;;;;5024177;28;20221;-32
2023/07/25 06:11:01;;;;;;;6.20;3.17;;;17.30;99.90;;;;;;5022632;28;20205;-32
2023/07/25 06:13:28;;;;;;;7.07;3.50;;;17.30;99.90;;;;;;5025937;28;20231;-26
2023/07/25 06:15:58;;;;;;;8.13;3.53;;;17.30;99.90;;;;;;5034960;28;20682;-26
2023/07/25 06:18:27;;;;;;;7.93;3.40;;;17.30;99.90;;;;;;5032381;28;20457;-26
2023/07/25 06:20:59;;;;;;;8.27;3.90;;;17.40;99.90;;;;;;5039491;28;20197;-26
2023/07/25 06:23:29;;;;;;;9.27;3.70;;;17.40;99.90;;;;;;5043233;28;20257;-27
2023/07/25 06:25:59;;;;;;;5.72;3.47;;;17.40;99.90;;;;;;5035871;28;20523;-27
2023/07/25 06:28:29;;;;;;;6.32;3.40;;;17.40;99.90;;;;;;5024655;28;20228;-26
2023/07/25 06:30:56;;;;;;;8.70;3.28;;;17.40;99.90;;;;;;5015883;28;20679;-28
2023/07/25 06:33:28;;;;;;;5.97;3.30;;;17.40;99.90;;;;;;5029339;28;20265;-27
2023/07/25 06:35:57;;;;;;;6.10;3.22;;;17.50;99.90;;;;;;5033278;28;20247;-27
2023/07/25 06:38:26;;;;;;;7.07;3.33;;;17.50;99.90;;;;;;5038504;28;20725;-27
2023/07/25 06:40:56;;;;;;;12.90;3.88;;;17.50;99.90;;;;;;5046318;28;20211;-26
2023/07/25 06:43:26;;;;;;;6.63;3.43;;;17.50;99.90;;;;;;5041607;28;20199;-28
2023/07/25 06:45:56;;;;;;;5.60;3.40;;;17.50;99.90;;;;;;5036590;28;20205;-28
2023/07/25 06:48:25;;;;;;;7.53;3.45;;;17.50;99.90;;;;;;5034286;28;21094;-27
2023/07/25 06:50:52;;;;;;;7.20;3.22;;;17.50;99.90;;;;;;5020005;28;20835;-27
2023/07/25 06:53:22;;;;;;;6.43;3.63;;;17.50;99.90;;;;;;5027830;28;20209;-27
2023/07/25 06:55:49;;;;;;;7.33;3.73;;;17.50;99.90;;;;;;5021048;28;20215;-28
2023/07/25 06:58:18;;;;;;;5.67;3.20;;;17.50;99.90;;;;;;5025975;28;20722;-27
2023/07/25 07:00:46;;;;;;;6.93;3.17;;;17.60;99.90;;;;;;5025573;28;20228;-27
2023/07/25 07:03:14;;;;;;;6.93;3.70;;;17.60;99.90;;;;;;5025877;28;20685;-27
2023/07/25 07:05:50;;;;;;;6.63;3.53;;;17.60;99.90;;;;;;5026731;28;20217;-27
2023/07/25 07:08:18;;;;;;;8.40;3.15;;;17.60;99.90;;;;;;5020818;28;20204;-27
2023/07/25 07:10:45;;;;;;;5.97;3.30;;;17.70;99.90;;;;;;5027191;28;20748;-27
2023/07/25 07:13:12;;;;;;;5.77;3.30;;;17.70;99.90;;;;;;5026683;28;20217;-27
2023/07/25 07:15:45;;;;;;;6.47;3.43;;;17.70;99.90;;;;;;5038850;28;20694;-33
2023/07/25 07:18:12;;;;;;;8.53;3.83;;;17.80;99.90;;;;;;5029436;28;20324;-33
2023/07/25 07:20:43;;;;;;;7.63;3.60;;;17.80;99.90;;;;;;5042810;28;20545;-33
2023/07/25 07:23:10;;;;;;;6.70;3.47;;;17.80;99.90;;;;;;5032780;28;20328;-33
2023/07/25 07:25:41;;;;;;;5.97;3.40;;;17.80;99.90;;;;;;5026463;28;20733;-27
2023/07/25 07:28:08;;;;;;;7.50;3.47;;;17.90;99.90;;;;;;5025387;28;20208;-27
2023/07/25 07:30:36;;;;;;;6.28;3.50;;;18.00;99.90;;;;;;5026567;28;20223;-27
2023/07/25 07:33:05;;;;;;;7.73;3.03;;;18.00;99.90;;;;;;5039207;28;20223;-27
2023/07/25 07:35:32;;;;;;;7.10;3.17;;;18.00;99.90;;;;;;5046845;28;20203;-27
2023/07/25 07:38:02;;;;;;;8.95;3.33;;;18.10;99.90;;;;;;5042035;28;20305;-27
2023/07/25 07:40:29;;;;;;;6.10;3.40;;;18.10;99.90;;;;;;5045537;28;20212;-27
2023/07/25 07:42:58;;;;;;;5.47;3.27;;;18.10;99.90;;;;;;5023628;28;20357;-27
2023/07/25 07:45:29;;;;;;;5.33;2.73;;;18.10;99.90;;;;;;5045376;28;20196;-27
2023/07/25 07:47:57;;;;;;;6.33;3.53;;;18.10;99.90;;;;;;5035913;28;20495;-27
2023/07/25 07:50:29;;;;;;;5.30;2.70;;;18.10;99.90;;;;;;5025518;28;20217;-27
2023/07/25 07:52:57;;;;;;;5.83;2.90;;;18.10;99.90;;;;;;5033479;28;20212;-27
2023/07/25 07:55:24;;;;;;;6.10;2.65;;;18.20;99.90;;;;;;5043276;28;20674;-27
2023/07/25 07:57:51;;;;;;;9.20;3.80;;;18.20;99.90;;;;;;5042876;28;20228;-27
2023/07/25 08:00:21;;;;;;;7.13;2.80;;;18.30;99.90;;;;;;5031001;28;20213;-27
2023/07/25 08:02:50;;;;;;;7.82;2.88;;;18.30;99.90;;;;;;5026596;28;20193;-32
2023/07/25 08:05:18;;;;;;;6.47;3.13;;;18.30;99.90;;;;;;5026945;28;20209;-32
2023/07/25 08:07:45;;;;;;;6.33;2.63;;;18.40;99.90;;;;;;5006877;28;20239;-32
2023/07/25 08:10:12;;;;;;;6.07;2.93;;;18.40;99.90;;;;;;5029310;28;20261;-32
2023/07/25 08:12:39;;;;;;;6.37;2.97;;;18.50;99.90;;;;;;5036726;28;20664;-27
2023/07/25 08:15:07;;;;;;;5.60;2.40;;;18.50;99.90;;;;;;5043922;28;20204;-26
2023/07/25 08:17:35;;;;;;;9.93;3.07;;;18.60;99.90;;;;;;5036244;28;20333;-27
2023/07/25 08:20:05;;;;;;;5.30;2.87;;;18.60;99.90;;;;;;5028600;28;20193;-27
2023/07/25 08:22:34;;;;;;;5.80;2.83;;;18.60;99.90;;;;;;5037075;28;20716;-27
2023/07/25 08:25:04;;;;;;;5.38;2.20;;;18.60;99.90;;;;;;5046945;28;20216;-33
2023/07/25 08:27:31;;;;;;;22.65;7.90;;;18.70;99.90;;;;;;5045415;28;20633;-32
2023/07/25 08:30:01;;;;;;;18.65;6.28;;;18.70;99.90;;;;;;5044342;28;20636;-33
2023/07/25 08:32:30;;;;;;;6.47;3.10;;;18.70;99.90;;;;;;5028207;28;20204;-33
2023/07/25 08:35:05;;;;;;;6.88;2.63;;;18.70;99.90;;;;;;5016885;28;20225;-33
2023/07/25 08:37:32;;;;;;;6.05;2.42;;;18.70;99.90;;;;;;5041587;28;20212;-34
2023/07/25 08:39:59;;;;;;;6.70;2.22;;;18.70;99.90;;;;;;5033244;28;20555;-33
2023/07/25 08:42:31;;;;;;;7.53;2.10;;;18.70;99.90;;;;;;5030438;28;20204;-34
2023/07/25 08:45:00;;;;;;;8.35;2.28;;;18.80;99.90;;;;;;5031326;28;20231;-34
2023/07/25 08:47:33;;;;;;;8.38;2.70;;;18.80;99.90;;;;;;5043221;28;20208;-34
2023/07/25 08:50:04;;;;;;;6.05;2.22;;;18.70;99.90;;;;;;5037146;28;20216;-33
2023/07/25 08:52:32;;;;;;;5.55;2.45;;;18.70;99.90;;;;;;5034267;28;20205;-33
2023/07/25 08:55:02;;;;;;;9.02;2.65;;;18.70;99.90;;;;;;5044029;28;20224;-33
2023/07/25 08:57:31;;;;;;;6.22;2.30;;;18.70;99.90;;;;;;5020897;28;20702;-33
2023/07/25 09:00:08;;;;;;;5.32;2.28;;;18.70;99.90;;;;;;5029574;28;20212;-33
2023/07/25 09:02:40;;;;;;;6.28;2.42;;;18.70;99.90;;;;;;5041887;28;20207;-33
2023/07/25 09:05:07;;;;;;;5.88;2.20;;;18.70;99.90;;;;;;5037997;28;20209;-33
2023/07/25 09:07:40;;;;;;;6.95;2.25;;;18.70;99.90;;;;;;5035929;28;20675;-34
2023/07/25 09:10:07;;;;;;;5.03;2.17;;;18.80;99.90;;;;;;5033371;28;20702;-33
2023/07/25 09:12:37;;;;;;;3.00;1.87;;;18.70;99.90;;;;;;5032057;28;20258;-33
2023/07/25 09:15:04;;;;;;;6.32;2.15;;;18.70;99.90;;;;;;5043104;28;20278;-33
2023/07/25 09:17:32;;;;;;;7.03;2.10;;;18.80;99.90;;;;;;5025028;28;20629;-33
2023/07/25 09:19:59;;;;;;;4.80;1.65;;;18.80;99.90;;;;;;5035634;28;20210;-33
2023/07/25 09:22:31;;;;;;;7.93;2.43;;;18.90;99.90;;;;;;5028654;28;20301;-33
2023/07/25 09:25:00;;;;;;;7.50;2.10;;;19.00;99.90;;;;;;5041122;28;20201;-33
2023/07/25 09:27:35;;;;;;;4.25;1.92;;;19.10;99.90;;;;;;5030397;28;20733;-33
2023/07/25 09:30:12;;;;;;;6.90;1.90;;;19.10;99.90;;;;;;5045597;28;20669;-33
2023/07/25 09:32:47;;;;;;;4.67;1.50;;;19.20;99.90;;;;;;5041515;28;20211;-33
2023/07/25 09:35:17;;;;;;;4.90;1.83;;;19.20;99.90;;;;;;5031304;28;20201;-33
2023/07/25 09:37:54;;;;;;;7.07;2.30;;;19.30;99.90;;;;;;5032060;28;20582;-32
2023/07/25 09:40:22;;;;;;;4.07;1.63;;;19.30;99.90;;;;;;5035913;28;20748;-33
2023/07/25 09:42:51;;;;;;;6.00;1.73;;;19.30;99.90;;;;;;5044932;28;20212;-33
2023/07/25 09:45:19;;;;;;;3.72;1.65;;;19.30;99.90;;;;;;5044932;28;20207;-33
2023/07/25 09:47:54;;;;;;;6.43;2.08;;;19.30;99.90;;;;;;5027365;28;20578;-33
2023/07/25 09:50:26;;;;;;;4.43;2.00;;;19.40;99.90;;;;;;5021860;28;20300;-33
2023/07/25 09:52:53;;;;;;;5.63;1.80;;;19.40;99.90;;;;;;5029569;28;20205;-27
2023/07/25 09:55:20;;;;;;;5.78;1.77;;;19.40;99.90;;;;;;5031072;28;20221;-27
2023/07/25 09:57:48;;;;;;;5.32;2.10;;;19.30;99.90;;;;;;5029878;28;20221;-27
2023/07/25 10:00:20;;;;;;;4.55;1.52;;;19.30;99.90;;;;;;5034530;28;20258;-26
2023/07/25 10:02:50;;;;;;;6.93;1.70;;;19.20;99.90;;;;;;5038174;28;20203;-26
2023/07/25 10:05:23;;;;;;;6.35;1.58;;;19.20;99.90;;;;;;5026547;28;20590;-27
2023/07/25 10:07:52;;;;;;;4.43;1.88;;;19.20;99.90;;;;;;5032935;28;20319;-27
2023/07/25 10:10:25;;;;;;;4.65;1.65;;;19.20;99.90;;;;;;5040777;28;20212;-26
2023/07/25 10:12:57;;;;;;;7.10;2.03;;;19.20;99.90;;;;;;5027049;28;20217;-27
2023/07/25 10:15:27;;;;;;;6.13;1.70;;;19.30;99.90;;;;;;5030481;28;20273;-33
2023/07/25 10:18:04;;;;;;;6.90;2.07;;;19.40;99.90;;;;;;5034209;28;20640;-33
2023/07/25 10:20:34;;;;;;;4.70;1.98;;;19.40;99.90;;;;;;5019040;28;20630;-33
2023/07/25 10:23:12;;;;;;;6.93;1.70;;;19.40;99.90;;;;;;5033616;28;20654;-33
2023/07/25 10:25:40;;;;;;;6.18;2.22;;;19.50;99.90;;;;;;5043286;28;20605;-33
2023/07/25 10:28:07;;;;;;;7.47;1.83;;;19.50;99.90;;;;;;5031823;28;20354;-33
2023/07/25 10:30:45;;;;;;;5.83;1.80;;;19.50;99.90;;;;;;5026428;28;20657;-33
2023/07/25 10:33:18;;;;;;;6.72;2.10;;;19.50;99.90;;;;;;5026311;28;20199;-26
2023/07/25 10:35:49;;;;;;;5.30;1.90;;;19.50;99.90;;;;;;5027400;28;20205;-27
2023/07/25 10:38:40;;;;;;;5.50;2.25;;;19.50;99.90;;;;;;5034263;28;20314;-27
2023/07/25 10:41:16;;;;;;;5.68;2.10;;;19.50;99.90;;;;;;5030428;28;20220;-27
2023/07/25 10:43:46;;;;;;;5.47;1.70;;;19.50;99.90;;;;;;5037815;28;20330;-27
2023/07/25 10:46:35;;;;;;;6.00;1.70;;;19.60;99.90;;;;;;5036350;28;20212;-27
2023/07/25 10:49:16;;;;;;;5.20;2.17;;;19.60;99.90;;;;;;5033714;28;20216;-27
2023/07/25 10:51:51;;;;;;;3.83;1.80;;;19.60;99.90;;;;;;5029543;28;20216;-26
2023/07/25 10:54:24;;;;;;;4.85;1.90;;;19.70;99.90;;;;;;5045916;28;20618;-26
2023/07/25 10:57:10;;;;;;;6.57;2.00;;;19.70;99.90;;;;;;5035688;28;20228;-26
2023/07/25 10:59:58;;;;;;;4.60;2.03;;;19.80;99.90;;;;;;5034944;28;20224;-32
2023/07/25 11:02:34;;;;;;;7.47;1.95;;;19.80;99.90;;;;;;5036913;28;20200;-32
2023/07/25 11:05:13;;;;;;;4.43;1.30;;;19.70;99.90;;;;;;5035015;28;20220;-32
2023/07/25 11:07:51;;;;;;;5.28;1.60;;;19.80;99.90;;;;;;5031012;28;20224;-32
2023/07/25 11:10:29;;;;;;;4.40;1.83;;;19.80;99.90;;;;;;5041916;28;20570;-32
2023/07/25 11:13:02;;;;;;;4.97;2.10;;;19.80;99.90;;;;;;5045345;28;20663;-26
2023/07/25 11:15:32;;;;;;;4.63;2.03;;;19.90;99.90;;;;;;5045929;28;20215;-26
2023/07/25 11:18:19;;;;;;;7.20;1.60;;;19.90;99.90;;;;;;5039773;28;20778;-26
2023/07/25 11:21:03;;;;;;;6.15;1.65;;;19.80;99.90;;;;;;5025055;28;20631;-26
2023/07/25 11:23:32;;;;;;;6.50;1.40;;;19.80;99.90;;;;;;5027220;28;20586;-26
2023/07/25 11:26:03;;;;;;;5.43;1.50;;;19.80;99.90;;;;;;5043447;28;20273;-26
2023/07/25 11:28:33;;;;;;;5.45;1.55;;;19.80;99.90;;;;;;5040336;28;20223;-26
2023/07/25 11:31:02;;;;;;;6.75;1.95;;;19.90;99.90;;;;;;5043190;28;20690;-26
2023/07/25 11:33:41;;;;;;;4.88;1.70;;;19.90;99.90;;;;;;5027151;28;20398;-26
2023/07/25 11:36:13;;;;;;;4.22;1.50;;;19.90;99.90;;;;;;5024466;28;20208;-26
2023/07/25 11:38:43;;;;;;;4.57;1.58;;;19.90;99.90;;;;;;5042604;28;20252;-26
2023/07/25 11:41:10;;;;;;;5.78;1.83;;;19.90;99.90;;;;;;5027959;28;20318;-26
2023/07/25 11:43:39;;;;;;;4.28;1.60;;;19.90;99.90;;;;;;5036226;28;20199;-26
2023/07/25 11:46:07;;;;;;;5.47;1.88;;;19.90;99.90;;;;;;5038033;28;20285;-26
2023/07/25 11:48:34;;;;;;;3.28;1.52;;;19.90;99.90;;;;;;5029138;28;20247;-26
2023/07/25 11:51:02;;;;;;;3.65;1.60;;;19.90;99.90;;;;;;5037133;28;20208;-26
2023/07/25 11:53:30;;;;;;;10.10;2.30;;;19.90;99.90;;;;;;5030144;28;20200;-26
2023/07/25 11:56:01;;;;;;;4.00;1.73;;;19.90;99.90;;;;;;5046747;28;20275;-26
2023/07/25 11:58:28;;;;;;;3.65;1.60;;;19.90;99.90;;;;;;5030351;28;20518;-26
2023/07/25 12:00:59;;;;;;;4.03;1.63;;;19.90;99.90;;;;;;5027890;28;20577;-26
2023/07/25 12:03:26;;;;;;;2.75;1.55;;;20.00;99.90;;;;;;5047111;28;20208;-26
2023/07/25 12:05:59;;;;;;;2.83;1.77;;;20.10;99.90;;;;;;5037018;28;20690;-32
2023/07/25 12:08:56;;;;;;;4.55;1.70;;;20.10;99.90;;;;;;5029424;28;20710;-32
2023/07/25 12:11:26;;;;;;;3.20;1.50;;;20.20;99.90;;;;;;5033233;28;20208;-32
2023/07/25 12:13:57;;;;;;;4.57;1.90;;;20.30;99.90;;;;;;5042079;28;20204;-32
2023/07/25 12:16:31;;;;;;;6.90;2.03;;;20.30;99.90;;;;;;5047959;28;20262;-32
2023/07/25 12:19:03;;;;;;;4.15;1.92;;;20.30;99.90;;;;;;5047210;28;20219;-26
2023/07/25 12:21:32;;;;;;;5.60;2.40;;;20.40;99.90;;;;;;5046231;28;20200;-26
2023/07/25 12:24:05;;;;;;;4.57;1.50;;;20.40;99.90;;;;;;5040101;28;20345;-26
2023/07/25 12:26:51;;;;;;;6.72;2.40;;;20.50;99.90;;;;;;5040268;28;20274;-26
2023/07/25 12:29:29;;;;;;;5.40;1.75;;;20.50;99.90;;;;;;5041474;28;20748;-26
2023/07/25 12:31:59;;;;;;;3.83;1.88;;;20.50;99.90;;;;;;4997386;28;20216;-26
2023/07/25 12:34:28;;;;;;;3.17;1.40;;;20.60;99.90;;;;;;5037313;28;20258;-26
2023/07/25 12:36:55;;;;;;;5.00;1.70;;;20.60;99.90;;;;;;5012524;28;20644;-26
2023/07/25 12:39:22;;;;;;;2.50;1.55;;;20.70;99.90;;;;;;5027887;28;20727;-26
2023/07/25 12:41:50;;;;;;;3.88;1.70;;;20.80;99.90;;;;;;5040436;28;20301;-26
2023/07/25 12:44:17;;;;;;;2.58;1.58;;;20.80;99.90;;;;;;5040228;28;20231;-26
2023/07/25 12:46:45;;;;;;;5.63;1.75;;;20.80;99.90;;;;;;5049498;28;20250;-26
2023/07/25 12:49:22;;;;;;;6.53;1.65;;;20.80;99.90;;;;;;5031763;28;20212;-26
2023/07/25 12:51:52;;;;;;;2.78;1.40;;;20.90;99.90;;;;;;5047136;28;20207;-26
2023/07/25 12:54:19;;;;;;;3.65;1.30;;;20.90;99.90;;;;;;5034381;28;20698;-26
2023/07/25 12:56:47;;;;;;;5.05;1.48;;;20.90;99.90;;;;;;5034482;28;20197;-26
2023/07/25 12:59:16;;;;;;;3.90;1.20;;;21.00;99.90;;;;;;5042760;28;20220;-26